Aérodrome :
LOGIN :

S'inscrire | Disclaimer

   EN    FR    IT 

 










Légende :    VFR   VFR Marginal   IFR   IFR Intensif   IFR Très Intensif
Visi : 
Plafond : 
>= 8 km
>= 3000ft
5 à 8 km
1000 à 3000 ft
1500m à 5 km
500 à 1000 ft
800 à 1500m
200 à 500 ft
< 800m
< 200 ft
Symboles :   Orages  Brouillard  Fortes neiges  Fortes précipitations  Vent > 20 kt
SIGMETs :   Divers  Orages  Givrage  Turbulence  Onde Orograph.  Cendres Volcan.






- Altitude de l'aérodrome : 123 ft
- Code IATA : BLQ


LIPE - Bologna Guglielmo Marconi

DERNIER METAR :
  • 151420Z 13013KT 9999 SCT050 24/15 Q1010

METARs EXPIRÉS :
  • 151350Z 13013KT 9999 FEW050 24/15 Q1010
  • 151320Z 13013KT 9999 FEW040 24/15 Q1011
  • 151250Z 14014KT 9999 FEW040 23/15 Q1011
  • 151220Z 16010KT 9999 SCT060 24/15 Q1012
  • 151150Z 16007KT 130V190 9999 SCT060 23/14 Q1012

TAF TAF LIPE
Valide du 15 à 12h jusqu'au 16 à 12h UTC


151100Z 1512/1612 10010KT 6000 SCT030
TEMPO 1514/1518 TSRA
BECMG 1516/1518 VRB05KT
BECMG 1608/1610 30010KT



MET'MAP, la Météo Aéronautique d'un coup d'oeil ! - Copyright ORBIFLY Décembre 2007 - Disclaimer

ORBIFLY MET'MAP TEAM :

Programmation & Développement : Alexandra Zaïnal
Conception & Développement : Baudouin d'Aumeries
Co-Programmation & Développement : Marc-Olivier Méhu
Soutien technique & logistique : Manuel Goepfert

Contact : metmap@orbifly.com




SOURCES & CREDITS :

   NOAA